Archival Weather

Abadan

Abadan, Iran (OIAA)

Report from: Wednesday, December 6, 2023 9:00 AM UTC
Current time: Sunday, February 25, 2024 10:05 PM UTC

Current weather – Weather history – Daily summaries
Weather forecast

Temperature25.0°C (77.0°F)
Dew point4.0°C (39.2°F)
Winds 4 kts (2.1 m/s, 4.6 mph) Southwest (220°)
Visibility5 mi. (8 km)
Altimeter30.03 in.Hg (1017 mB)
Relative humidity26 %
Density altitude1,155 ft. (352 m)
Flight conditions Marginal Visual Meteorological Conditions
Raw dataOIAA 060900Z 22004KT 8000 NSC 25/04 Q1017
An error has occurred. This application may no longer respond until reloaded. Reload 🗙